Time;durP1;ratioP1;P1;durP2;ratioP2;P2;SDS_P1;SDS_P2;PMS_P1;PMS_P2;Temp;Humidity;BMP_temperature;BMP_pressure;BME280_temperature;BME280_humidity;BME280_pressure;Samples;Min_cycle;Max_cycle;Signal;HPM_P1;HPM_P2
2023/09/05 00:01:03;;;;;;;21.15;11.60;;;;;;;19.16;100.00;102054.44;4963595;28;20117;-78
2023/09/05 00:03:31;;;;;;;23.13;11.63;;;;;;;19.19;100.00;102059.44;4984109;28;20017;-78
2023/09/05 00:06:04;;;;;;;19.73;10.65;;;;;;;19.09;100.00;102056.41;4980043;28;20129;-78
2023/09/05 00:08:30;;;;;;;24.85;10.68;;;;;;;19.08;100.00;102057.47;4995539;28;20068;-78
2023/09/05 00:10:59;;;;;;;20.00;10.30;;;;;;;19.00;100.00;102041.38;4994851;28;20034;-78
2023/09/05 00:13:26;;;;;;;22.55;10.60;;;;;;;19.09;100.00;102053.69;5012806;28;20026;-78
2023/09/05 00:15:52;;;;;;;26.30;11.15;;;;;;;19.13;100.00;102054.88;4995060;28;20030;-78
2023/09/05 00:18:17;;;;;;;21.85;11.65;;;;;;;19.16;100.00;102048.16;4978340;28;20495;-78
2023/09/05 00:20:42;;;;;;;22.35;11.27;;;;;;;19.14;100.00;102051.13;4962669;28;20034;-78
2023/09/05 00:23:09;;;;;;;23.23;11.13;;;;;;;19.17;100.00;102042.47;4994666;28;20080;-78
2023/09/05 00:25:34;;;;;;;28.65;12.02;;;;;;;19.13;100.00;102043.97;5012490;28;20022;-78
2023/09/05 00:28:03;;;;;;;21.83;11.70;;;;;;;19.00;100.00;102027.75;4978502;28;20038;-78
2023/09/05 00:30:28;;;;;;;29.38;12.20;;;;;;;19.07;100.00;102042.13;4994878;28;20036;-78
2023/09/05 00:32:54;;;;;;;21.27;10.85;;;;;;;19.04;100.00;102036.31;4978429;28;20029;-77
2023/09/05 00:35:19;;;;;;;23.35;12.68;;;;;;;19.11;100.00;102035.19;5011932;28;20527;-77
2023/09/05 00:37:46;;;;;;;22.55;11.80;;;;;;;19.12;100.00;102042.31;4995082;28;20041;-78
2023/09/05 00:40:12;;;;;;;25.55;12.00;;;;;;;19.13;100.00;102032.22;4979199;28;20037;-78
2023/09/05 00:42:37;;;;;;;23.23;11.45;;;;;;;19.10;100.00;102033.50;5012079;28;20098;-78
2023/09/05 00:45:05;;;;;;;26.77;12.20;;;;;;;19.11;100.00;102031.63;5011664;28;20468;-78
2023/09/05 00:47:32;;;;;;;20.30;10.43;;;;;;;19.01;100.00;102022.06;4979047;28;20030;-78
2023/09/05 00:50:01;;;;;;;24.60;12.00;;;;;;;18.99;100.00;102023.34;4994441;28;20092;-78
2023/09/05 00:52:28;;;;;;;24.67;11.82;;;;;;;19.07;100.00;102023.03;4995274;28;20184;-78
2023/09/05 00:54:54;;;;;;;21.95;10.57;;;;;;;19.06;100.00;102002.28;4998291;28;20037;-78
2023/09/05 00:57:20;;;;;;;21.90;10.95;;;;;;;19.07;100.00;102016.75;4997967;28;20030;-78
2023/09/05 00:59:45;;;;;;;24.90;10.65;;;;;;;19.05;100.00;102014.28;5015480;28;20485;-78
2023/09/05 01:02:11;;;;;;;23.25;11.48;;;;;;;19.07;100.00;102006.69;5016525;28;20492;-78
2023/09/05 01:04:37;;;;;;;21.10;10.98;;;;;;;18.99;100.00;101996.06;4979287;28;20069;-78
2023/09/05 01:07:27;;;;;;;26.73;11.55;;;;;;;19.11;100.00;102012.53;4995475;28;20042;-78
2023/09/05 01:10:28;;;;;;;22.95;11.73;;;;;;;19.07;100.00;102011.31;4999635;28;20025;-77
2023/09/05 01:12:53;;;;;;;20.65;10.90;;;;;;;19.10;100.00;102021.75;4990809;28;20091;-78
2023/09/05 01:15:18;;;;;;;18.67;10.70;;;;;;;19.06;100.00;102013.19;4961947;28;20117;-78
2023/09/05 01:17:44;;;;;;;25.00;12.23;;;;;;;19.05;100.00;102018.91;4994597;28;20125;-78
2023/09/05 01:20:11;;;;;;;26.48;11.43;;;;;;;19.09;100.00;102025.56;4994366;28;20065;-78
2023/09/05 01:22:49;;;;;;;20.13;10.77;;;;;;;18.92;100.00;101998.03;4994771;28;20030;-78
2023/09/05 01:25:16;;;;;;;19.55;10.90;;;;;;;19.02;100.00;102020.19;4994312;28;20018;-78
2023/09/05 01:27:41;;;;;;;23.27;11.00;;;;;;;18.98;100.00;102011.63;4978509;28;20169;-78
2023/09/05 01:30:09;;;;;;;20.58;11.18;;;;;;;18.99;100.00;102016.00;4978085;28;20086;-78
2023/09/05 01:32:34;;;;;;;21.30;11.20;;;;;;;18.98;100.00;102013.50;4993019;28;20022;-78
2023/09/05 01:35:00;;;;;;;21.42;11.40;;;;;;;19.07;100.00;102023.03;5011001;28;20040;-78
2023/09/05 01:37:27;;;;;;;21.80;10.32;;;;;;;19.05;100.00;102013.44;4977744;28;20114;-78
2023/09/05 01:39:53;;;;;;;19.33;10.98;;;;;;;19.01;100.00;102013.91;4994690;28;20033;-78
2023/09/05 01:42:19;;;;;;;21.25;10.32;;;;;;;19.01;100.00;102015.78;4991806;28;20388;-78
2023/09/05 01:44:44;;;;;;;19.90;10.50;;;;;;;18.94;100.00;102004.94;4978109;28;20034;-78
2023/09/05 01:47:09;;;;;;;27.27;11.45;;;;;;;18.98;100.00;102003.44;4965288;28;20407;-78
2023/09/05 01:49:35;;;;;;;19.77;11.02;;;;;;;19.00;100.00;102008.66;4997588;28;20058;-78
2023/09/05 01:52:00;;;;;;;25.15;11.32;;;;;;;19.02;100.00;102001.09;4997780;28;20054;-78
2023/09/05 01:54:26;;;;;;;23.92;11.45;;;;;;;19.01;100.00;102002.97;4998749;28;20046;-78
2023/09/05 01:56:51;;;;;;;21.83;11.63;;;;;;;18.99;100.00;102004.25;4998560;28;20036;-78
2023/09/05 01:59:19;;;;;;;26.15;11.60;;;;;;;18.99;100.00;102009.72;5018998;28;20072;-77
2023/09/05 02:01:45;;;;;;;28.83;12.95;;;;;;;18.99;100.00;102016.00;5017288;28;20029;-78
2023/09/05 02:04:10;;;;;;;22.55;12.07;;;;;;;18.98;100.00;102014.34;5015093;28;20444;-78
2023/09/05 02:06:35;;;;;;;28.50;12.30;;;;;;;18.97;100.00;102015.41;4997455;28;20038;-78
2023/09/05 02:09:01;;;;;;;26.17;12.15;;;;;;;18.99;100.00;102018.72;4981522;28;20484;-78
2023/09/05 02:11:26;;;;;;;30.30;12.02;;;;;;;18.93;100.00;102021.53;4964841;28;20026;-78
2023/09/05 02:13:51;;;;;;;28.08;12.25;;;;;;;18.89;100.00;102010.22;4997200;28;20030;-78
2023/09/05 02:16:18;;;;;;;21.50;12.13;;;;;;;18.94;100.00;102013.13;4982840;28;20507;-78
2023/09/05 02:18:46;;;;;;;19.33;11.73;;;;;;;18.89;100.00;102012.13;4982271;28;20124;-78
2023/09/05 02:21:11;;;;;;;25.75;12.27;;;;;;;18.86;100.00;102004.41;4997278;28;20041;-78
2023/09/05 02:23:36;;;;;;;21.33;12.27;;;;;;;18.89;100.00;102009.41;4981035;28;20038;-77
2023/09/05 02:26:02;;;;;;;22.13;12.52;;;;;;;18.92;100.00;102017.97;4980465;28;20034;-78
2023/09/05 02:28:28;;;;;;;20.75;12.07;;;;;;;18.92;100.00;102025.31;4997142;28;20041;-78
2023/09/05 02:30:55;;;;;;;24.77;12.45;;;;;;;18.86;100.00;102018.84;4996595;28;20033;-78
2023/09/05 02:33:21;;;;;;;22.02;12.15;;;;;;;18.92;100.00;102028.03;4997131;28;20025;-78
2023/09/05 02:35:47;;;;;;;19.50;11.98;;;;;;;18.58;100.00;101967.50;4996862;28;20041;-78
2023/09/05 02:38:13;;;;;;;26.13;13.48;;;;;;;18.83;100.00;102015.75;5014509;28;20037;-77
2023/09/05 02:40:48;;;;;;;23.15;12.95;;;;;;;18.88;100.00;102024.09;4997107;28;20030;-78
2023/09/05 02:43:14;;;;;;;24.23;13.93;;;;;;;18.75;100.00;102003.25;5014499;28;20022;-78
2023/09/05 02:45:40;;;;;;;24.70;14.13;;;;;;;18.84;100.00;102014.69;4983808;28;20033;-78
2023/09/05 02:48:06;;;;;;;26.20;14.07;;;;;;;18.87;100.00;102014.22;5005882;28;20028;-78
2023/09/05 02:50:32;;;;;;;25.17;14.23;;;;;;;18.71;100.00;102002.84;4977744;28;20049;-78
2023/09/05 02:52:57;;;;;;;23.38;14.85;;;;;;;18.81;100.00;102009.69;4993312;28;20027;-78
2023/09/05 02:55:22;;;;;;;26.38;14.07;;;;;;;18.73;100.00;101994.44;4999419;28;20034;-78
2023/09/05 02:57:48;;;;;;;26.38;14.80;;;;;;;18.48;100.00;101953.56;4984242;28;20034;-78
2023/09/05 03:00:15;;;;;;;31.63;15.43;;;;;;;18.80;100.00;102002.56;4995048;28;20026;-77
2023/09/05 03:02:42;;;;;;;25.70;15.07;;;;;;;18.78;100.00;102006.34;4977204;28;20501;-78
2023/09/05 03:05:08;;;;;;;21.15;14.15;;;;;;;18.76;100.00;102007.63;4977306;28;20084;-78
2023/09/05 03:07:33;;;;;;;30.23;16.13;;;;;;;18.73;100.00;102003.47;4976561;28;20416;-78
2023/09/05 03:09:58;;;;;;;31.27;17.00;;;;;;;18.80;100.00;102010.75;4976877;28;20424;-78
2023/09/05 03:12:24;;;;;;;30.23;16.27;;;;;;;18.68;100.00;101992.38;4960088;28;20038;-77
2023/09/05 03:14:49;;;;;;;32.35;17.25;;;;;;;18.79;100.00;102007.19;4993185;28;20052;-78
2023/09/05 03:17:15;;;;;;;28.83;17.52;;;;;;;18.75;100.00;102014.97;4992939;28;20033;-77
2023/09/05 03:19:40;;;;;;;27.67;16.98;;;;;;;18.78;100.00;102014.53;4994415;28;20408;-78
2023/09/05 03:22:06;;;;;;;30.25;17.25;;;;;;;18.73;100.00;102002.63;4978449;28;20100;-78
2023/09/05 03:24:33;;;;;;;33.45;18.15;;;;;;;18.65;100.00;101987.38;4993495;28;20048;-78
2023/09/05 03:26:58;;;;;;;33.45;18.52;;;;;;;18.71;100.00;102005.56;4976834;28;20033;-77
2023/09/05 03:29:24;;;;;;;36.72;19.48;;;;;;;18.80;100.00;102005.28;4992915;28;20034;-78
2023/09/05 03:31:49;;;;;;;34.75;19.85;;;;;;;18.76;100.00;102002.19;4976806;28;20117;-78
2023/09/05 03:34:14;;;;;;;35.83;20.30;;;;;;;18.76;100.00;101997.56;4992349;28;20034;-78
2023/09/05 03:36:39;;;;;;;32.88;19.17;;;;;;;18.76;100.00;101997.56;4993269;28;20039;-77
2023/09/05 03:39:05;;;;;;;34.58;19.58;;;;;;;18.83;100.00;101999.38;4976304;28;20116;-78
2023/09/05 03:41:30;;;;;;;33.08;19.15;;;;;;;18.76;100.00;101986.66;4975906;28;20503;-77
2023/09/05 03:43:56;;;;;;;34.80;19.83;;;;;;;18.86;100.00;102001.66;4993269;28;20481;-78
2023/09/05 03:46:21;;;;;;;31.88;20.05;;;;;;;18.92;100.00;102004.31;4992521;28;20026;-78
2023/09/05 03:48:49;;;;;;;35.72;22.40;;;;;;;18.91;100.00;102001.84;4993116;28;20503;-78
2023/09/05 03:51:14;;;;;;;34.42;21.48;;;;;;;18.94;100.00;101996.75;4992175;28;20092;-77
2023/09/05 03:53:40;;;;;;;37.08;21.30;;;;;;;18.93;100.00;101989.63;4979624;28;20234;-78
2023/09/05 03:56:05;;;;;;;32.45;21.35;;;;;;;19.05;100.00;102000.63;4994728;28;20090;-78
2023/09/05 03:58:31;;;;;;;30.63;21.30;;;;;;;19.04;100.00;101998.97;4993398;28;20034;-77
2023/09/05 04:01:03;;;;;;;35.60;21.13;;;;;;;19.02;100.00;101999.19;4991915;28;20054;-78
2023/09/05 04:03:31;;;;;;;31.88;21.10;;;;;;;19.06;100.00;102002.28;4992289;28;20022;-78
2023/09/05 04:06:00;;;;;;;32.85;19.77;;;;;;;18.95;100.00;101981.22;4991836;28;20441;-78
2023/09/05 04:08:26;;;;;;;35.17;21.75;;;;;;;19.02;100.00;101992.91;4991765;28;20026;-77
2023/09/05 04:10:59;;;;;;;34.10;21.60;;;;;;;18.96;100.00;102000.09;4975502;28;20041;-77
2023/09/05 04:13:29;;;;;;;36.53;21.23;;;;;;;18.94;100.00;102002.22;4992433;28;20085;-77
2023/09/05 04:15:54;;;;;;;37.92;23.33;;;;;;;18.95;100.00;101992.13;4992900;28;20030;-79
2023/09/05 04:18:20;;;;;;;36.92;23.73;;;;;;;18.90;100.00;101979.16;4993642;28;20027;-79
2023/09/05 04:20:45;;;;;;;34.47;23.60;;;;;;;19.00;100.00;101986.81;4994068;28;20030;-78
2023/09/05 04:23:11;;;;;;;38.47;24.25;;;;;;;19.10;100.00;101992.59;4992796;28;20037;-78
2023/09/05 04:25:39;;;;;;;40.58;24.35;;;;;;;19.16;100.00;101999.03;4975872;28;20063;-77
2023/09/05 04:28:06;;;;;;;39.10;24.30;;;;;;;19.07;100.00;101979.41;4992920;28;20045;-77
2023/09/05 04:30:33;;;;;;;35.38;23.38;;;;;;;19.19;100.00;101996.69;4991424;28;20042;-77
2023/09/05 04:32:58;;;;;;;39.95;24.38;;;;;;;19.06;100.00;101988.66;4992077;28;20034;-78
2023/09/05 04:35:24;;;;;;;43.67;25.48;;;;;;;19.08;100.00;101986.53;4986389;28;20031;-78
2023/09/05 04:37:52;;;;;;;37.28;23.85;;;;;;;19.29;100.00;101995.31;4972304;28;20089;-77
2023/09/05 04:40:18;;;;;;;37.60;24.88;;;;;;;19.28;100.00;101993.66;4972151;28;20106;-78
2023/09/05 04:42:43;;;;;;;40.97;26.00;;;;;;;19.37;100.00;101993.13;4972449;28;20122;-77
2023/09/05 04:45:09;;;;;;;37.03;24.65;;;;;;;19.32;100.00;101982.06;4955961;28;20075;-78
2023/09/05 04:47:35;;;;;;;42.05;25.30;;;;;;;19.46;100.00;101991.72;4972926;28;20081;-77
2023/09/05 04:50:00;;;;;;;39.45;25.10;;;;;;;19.31;100.00;101963.19;4970513;28;20065;-78
2023/09/05 04:52:28;;;;;;;35.40;23.55;;;;;;;19.44;100.00;101990.31;4963601;28;20613;-78
2023/09/05 04:54:58;;;;;;;40.20;25.15;;;;;;;19.51;100.00;101990.25;4976110;28;20045;-78
2023/09/05 04:57:25;;;;;;;39.65;23.73;;;;;;;19.50;100.00;101983.91;4976179;28;20038;-78
2023/09/05 04:59:57;;;;;;;34.63;23.45;;;;;;;19.48;100.00;101969.69;4975969;28;20034;-78
2023/09/05 05:02:23;;;;;;;37.38;22.02;;;;;;;19.54;100.00;101982.41;4975943;28;20023;-78
2023/09/05 05:04:49;;;;;;;32.83;22.48;;;;;;;19.46;100.00;101974.53;4987341;28;20034;-77
2023/09/05 05:07:14;;;;;;;32.08;22.20;;;;;;;19.55;100.00;101981.34;4966904;28;20516;-78
2023/09/05 05:09:40;;;;;;;36.15;23.42;;;;;;;19.52;100.00;101965.41;4943974;28;20117;-78
2023/09/05 05:12:06;;;;;;;33.78;22.67;;;;;;;19.57;100.00;101976.50;4973740;28;20030;-78
2023/09/05 05:14:31;;;;;;;36.25;23.02;;;;;;;19.50;100.00;101956.63;4957474;28;20117;-78
2023/09/05 05:16:57;;;;;;;37.03;23.15;;;;;;;19.62;100.00;101964.88;4973040;28;20113;-78
2023/09/05 05:19:23;;;;;;;38.60;23.38;;;;;;;19.53;100.00;101947.97;4957313;28;20042;-78
2023/09/05 05:21:49;;;;;;;43.60;24.52;;;;;;;19.89;100.00;101974.38;4995071;28;20038;-78
2023/09/05 05:24:15;;;;;;;37.17;23.98;;;;;;;19.83;100.00;101969.00;4995959;28;20030;-78
2023/09/05 05:26:41;;;;;;;38.47;25.08;;;;;;;20.17;100.00;101965.56;4962425;28;20535;-78
2023/09/05 05:29:08;;;;;;;35.67;23.00;;;;;;;20.18;100.00;101952.72;4978312;28;20034;-78
2023/09/05 05:31:33;;;;;;;40.05;24.40;;;;;;;20.35;100.00;101969.25;4995892;28;20101;-78
2023/09/05 05:34:00;;;;;;;38.10;25.25;;;;;;;20.32;100.00;101964.25;4962468;28;20117;-78
2023/09/05 05:36:26;;;;;;;37.45;24.92;;;;;;;20.27;100.00;101977.81;4962245;28;20046;-78
2023/09/05 05:38:52;;;;;;;46.05;26.20;;;;;;;20.24;100.00;101978.28;4978564;28;20100;-78
2023/09/05 05:41:18;;;;;;;44.03;25.20;;;;;;;20.16;100.00;101968.50;4995379;28;20030;-77
2023/09/05 05:43:44;;;;;;;39.75;24.73;;;;;;;20.11;100.00;101963.75;4980037;28;20026;-78
2023/09/05 05:46:10;;;;;;;45.13;26.42;;;;;;;20.32;100.00;101970.53;4982588;28;20019;-77
2023/09/05 05:48:35;;;;;;;37.30;24.80;;;;;;;20.18;100.00;101956.28;4982423;28;20031;-77
2023/09/05 05:51:02;;;;;;;42.03;25.50;;;;;;;20.35;100.00;101961.06;4959735;28;20154;-78
2023/09/05 05:53:28;;;;;;;36.58;23.92;;;;;;;20.68;100.00;101957.75;4942522;28;20098;-77
2023/09/05 05:55:54;;;;;;;34.85;22.67;;;;;;;20.68;100.00;101946.00;4959244;28;20122;-79
2023/09/05 05:58:20;;;;;;;33.53;21.67;;;;;;;20.90;100.00;101960.72;4959282;28;20042;-78
2023/09/05 06:00:50;;;;;;;34.90;22.65;;;;;;;20.97;100.00;101960.59;4975623;28;20038;-78
2023/09/05 06:03:20;;;;;;;35.22;21.88;;;;;;;20.90;100.00;101954.44;4964809;28;20024;-78
2023/09/05 06:05:45;;;;;;;32.45;21.40;;;;;;;20.93;100.00;101954.78;4937218;29;20058;-79
2023/09/05 06:08:12;;;;;;;35.05;21.10;;;;;;;21.12;100.00;101966.38;4938142;29;20043;-78
2023/09/05 06:10:37;;;;;;;30.60;20.35;;;;;;;21.11;100.00;101956.50;4953734;28;20027;-78
2023/09/05 06:13:04;;;;;;;30.23;18.73;;;;;;;21.14;100.00;101947.00;4937631;29;20038;-77
2023/09/05 06:15:30;;;;;;;29.50;19.02;;;;;;;21.03;100.00;101937.75;4952903;29;20513;-78
2023/09/05 06:17:56;;;;;;;31.63;18.65;;;;;;;21.17;100.00;101952.00;4937133;29;20494;-78
2023/09/05 06:20:21;;;;;;;28.90;17.42;;;;;;;21.05;100.00;101930.94;4953215;29;20171;-77
2023/09/05 06:22:47;;;;;;;27.65;17.67;;;;;;;21.19;100.00;101956.16;4959585;28;20386;-76
2023/09/05 06:25:13;;;;;;;27.75;17.92;;;;;;;21.10;100.00;101949.38;4940726;28;20034;-77
2023/09/05 06:27:43;;;;;;;25.27;17.02;;;;;;;21.28;100.00;101951.13;4973539;28;20026;-78
2023/09/05 06:30:11;;;;;;;31.13;16.77;;;;;;;21.29;100.00;101950.03;4958598;28;20552;-77
2023/09/05 06:32:37;;;;;;;26.60;17.38;;;;;;;21.24;100.00;101967.19;4972886;28;20039;-77
2023/09/05 06:35:05;;;;;;;24.25;16.92;;;;;;;21.32;100.00;101949.53;4958078;28;20054;-80
2023/09/05 06:37:32;;;;;;;25.92;17.35;;;;;;;21.34;100.00;101947.41;4945037;28;20030;-80
2023/09/05 06:40:00;;;;;;;31.98;16.67;;;;;;;21.44;100.00;101944.91;4978183;28;20457;-80
2023/09/05 06:42:26;;;;;;;30.48;16.42;;;;;;;21.57;100.00;101950.09;4963258;28;20042;-79
2023/09/05 06:44:52;;;;;;;22.45;16.10;;;;;;;21.56;100.00;101937.47;4981395;28;20482;-79
2023/09/05 06:47:17;;;;;;;30.20;15.82;;;;;;;21.56;100.00;101937.47;4977673;28;20035;-80
2023/09/05 06:49:43;;;;;;;22.42;15.73;;;;;;;21.61;100.00;101922.22;4961189;28;20038;-80
2023/09/05 06:52:08;;;;;;;24.13;15.85;;;;;;;21.66;100.00;101936.00;4981128;28;20033;-80
2023/09/05 06:54:34;;;;;;;23.35;15.48;;;;;;;21.81;100.00;101952.72;4963918;28;20396;-79
2023/09/05 06:57:01;;;;;;;23.67;15.23;;;;;;;21.72;100.00;101945.97;4978748;28;20100;-79
2023/09/05 06:59:26;;;;;;;25.70;15.73;;;;;;;21.56;100.00;101929.25;4959135;28;20054;-79
2023/09/05 07:01:52;;;;;;;23.25;14.32;;;;;;;21.38;100.00;101918.50;4961142;28;20089;-79
2023/09/05 07:04:17;;;;;;;23.92;14.68;;;;;;;21.83;100.00;101952.47;4943467;28;20053;-79
2023/09/05 07:06:44;;;;;;;24.63;13.93;;;;;;;21.85;100.00;101967.56;4960672;28;20034;-79
2023/09/05 07:09:10;;;;;;;20.98;13.80;;;;;;;21.98;100.00;101960.94;4996121;28;20515;-79
2023/09/05 07:11:35;;;;;;;21.48;13.27;;;;;;;21.99;100.00;101963.47;4977433;28;20129;-79
2023/09/05 07:14:01;;;;;;;25.15;14.65;;;;;;;21.85;100.00;101973.06;4977369;28;20027;-79
2023/09/05 07:16:26;;;;;;;19.45;13.93;;;;;;;21.77;100.00;101970.72;4961148;28;20042;-80
2023/09/05 07:18:52;;;;;;;23.90;14.43;;;;;;;21.56;100.00;101951.16;4995264;28;20062;-79
2023/09/05 07:21:17;;;;;;;24.17;14.77;;;;;;;21.63;100.00;101972.09;4976745;28;20041;-78
2023/09/05 07:23:43;;;;;;;21.23;13.20;;;;;;;21.72;100.00;101952.28;4960002;28;20034;-77
2023/09/05 07:26:08;;;;;;;25.35;14.82;;;;;;;21.83;100.00;101964.25;5007322;28;20121;-75
2023/09/05 07:28:34;;;;;;;21.50;14.60;;;;;;;21.76;100.00;101942.50;4996253;28;20067;-78
2023/09/05 07:31:00;;;;;;;21.52;14.10;;;;;;;21.92;100.00;101938.13;4994628;28;20042;-78
2023/09/05 07:33:26;;;;;;;23.42;14.20;;;;;;;22.11;100.00;101955.16;5005337;28;20102;-79
2023/09/05 07:35:52;;;;;;;24.33;13.73;;;;;;;21.99;100.00;101957.97;5001940;28;20084;-78
2023/09/05 07:38:21;;;;;;;21.63;14.38;;;;;;;21.77;100.00;101960.59;4995973;28;20041;-80
2023/09/05 07:40:47;;;;;;;24.35;15.07;;;;;;;21.91;100.00;101960.28;4981063;28;20057;-79
2023/09/05 07:43:13;;;;;;;23.98;14.68;;;;;;;21.84;100.00;101959.63;4996710;28;20105;-80
2023/09/05 07:45:38;;;;;;;21.80;14.45;;;;;;;21.88;100.00;101947.91;5016320;28;20045;-79
2023/09/05 07:48:07;;;;;;;20.95;15.65;;;;;;;21.90;100.00;101970.41;4950107;28;20042;-79
2023/09/05 07:50:34;;;;;;;24.58;14.63;;;;;;;21.88;100.00;101975.31;4986660;28;20061;-79
2023/09/05 07:52:59;;;;;;;27.30;15.93;;;;;;;21.80;100.00;101975.72;4986638;28;20113;-79
2023/09/05 07:55:24;;;;;;;26.27;16.10;;;;;;;21.70;100.00;101986.47;4972093;28;20113;-79
2023/09/05 07:57:51;;;;;;;23.92;14.93;;;;;;;21.64;100.00;101982.81;4956193;28;20481;-79
2023/09/05 08:00:19;;;;;;;26.75;16.50;;;;;;;21.59;100.00;101985.47;4956493;28;20034;-79
2023/09/05 08:02:46;;;;;;;23.95;16.50;;;;;;;21.56;100.00;101966.78;4997472;28;20036;-79
2023/09/05 08:05:12;;;;;;;24.77;16.52;;;;;;;21.72;100.00;101987.06;4993564;28;20462;-79
2023/09/05 08:07:38;;;;;;;25.38;15.77;;;;;;;21.62;100.00;101987.69;4989519;28;20033;-79
2023/09/05 08:10:06;;;;;;;25.88;16.33;;;;;;;21.80;100.00;102005.84;4984622;28;20034;-79
2023/09/05 08:12:31;;;;;;;20.23;15.63;;;;;;;21.82;100.00;102006.44;4964768;28;20038;-79
2023/09/05 08:14:56;;;;;;;24.67;16.20;;;;;;;21.83;100.00;102010.03;4985024;28;20511;-79
2023/09/05 08:17:22;;;;;;;24.58;16.30;;;;;;;21.74;100.00;101995.88;4954581;28;20473;-79
2023/09/05 08:19:47;;;;;;;23.10;16.10;;;;;;;21.53;100.00;101959.88;4984410;28;20553;-79
2023/09/05 08:22:13;;;;;;;23.60;15.48;;;;;;;21.81;100.00;101997.38;4987918;28;20046;-80
2023/09/05 08:24:39;;;;;;;22.42;15.27;;;;;;;21.88;100.00;102005.44;4980277;28;20033;-79
2023/09/05 08:27:05;;;;;;;21.67;15.13;;;;;;;21.97;100.00;102003.16;4951429;28;20038;-80
2023/09/05 08:29:32;;;;;;;23.25;16.20;;;;;;;22.01;100.00;102009.78;4979161;28;20045;-79
2023/09/05 08:31:58;;;;;;;21.02;15.57;;;;;;;22.02;100.00;101995.84;4959068;28;20050;-77
2023/09/05 08:34:24;;;;;;;23.52;15.52;;;;;;;21.96;100.00;101999.59;4986157;28;20054;-78
2023/09/05 08:36:49;;;;;;;24.67;15.43;;;;;;;22.04;100.00;102012.88;4966083;28;20485;-79
2023/09/05 08:39:15;;;;;;;25.40;17.33;;;;;;;22.17;99.30;102003.53;4967414;28;20327;-78
2023/09/05 08:41:41;;;;;;;24.38;15.05;;;;;;;22.40;98.11;102007.22;4981327;28;20055;-78
2023/09/05 08:44:08;;;;;;;22.30;15.00;;;;;;;22.23;98.62;101986.09;4962115;28;20062;-78
2023/09/05 08:46:35;;;;;;;25.58;15.88;;;;;;;22.45;98.28;101994.44;4989838;28;20034;-80
2023/09/05 08:49:02;;;;;;;23.92;16.25;;;;;;;22.40;98.06;101999.81;4992764;28;20035;-80
2023/09/05 08:51:32;;;;;;;24.38;15.15;;;;;;;22.70;97.42;102009.63;4995774;28;20148;-80
2023/09/05 08:54:03;;;;;;;24.50;14.25;;;;;;;22.84;96.72;102007.34;4955491;28;20501;-78
2023/09/05 08:56:29;;;;;;;25.35;14.40;;;;;;;22.80;96.71;101996.03;4995488;28;20030;-79
2023/09/05 08:58:56;;;;;;;25.55;15.18;;;;;;;22.77;97.33;101993.81;4988793;28;20030;-80
2023/09/05 09:01:24;;;;;;;21.67;12.98;;;;;;;23.10;94.40;101981.13;4996658;28;20041;-77
2023/09/05 09:03:52;;;;;;;20.00;13.90;;;;;;;23.20;93.56;101990.31;4994873;28;20034;-79
2023/09/05 09:06:26;;;;;;;22.80;13.73;;;;;;;23.33;93.27;101993.75;4991546;28;20144;-80
2023/09/05 09:08:52;;;;;;;21.05;14.07;;;;;;;23.38;92.85;102005.66;4990212;28;20373;-81
2023/09/05 09:11:23;;;;;;;19.52;13.43;;;;;;;23.45;92.71;102000.78;4974191;28;20381;-81
2023/09/05 09:13:57;;;;;;;24.33;14.55;;;;;;;23.43;92.20;101993.88;4976871;28;20038;-80
2023/09/05 09:16:22;;;;;;;;;;;;;;;23.67;92.22;102003.53;4967705;28;20121;-80
2023/09/05 09:18:49;;;;;;;19.33;13.50;;;;;;;23.57;91.52;102008.06;4982824;28;19993;-80
2023/09/05 09:21:17;;;;;;;18.95;13.60;;;;;;;23.32;90.72;101990.19;4994395;28;20285;-79
2023/09/05 09:23:44;;;;;;;20.75;12.55;;;;;;;23.56;91.26;102014.66;4994572;28;20022;-80
2023/09/05 09:26:10;;;;;;;18.88;12.50;;;;;;;23.68;90.93;102018.94;4973778;28;20037;-80
2023/09/05 09:28:37;;;;;;;23.77;14.63;;;;;;;23.61;90.60;102011.97;4975160;28;20034;-81
2023/09/05 09:31:10;;;;;;;24.00;14.38;;;;;;;23.71;89.76;102003.00;4978661;28;20531;-80
2023/09/05 09:33:36;;;;;;;19.93;14.10;;;;;;;23.65;88.95;102002.94;4996664;28;20111;-80
2023/09/05 09:36:11;;;;;;;18.85;12.32;;;;;;;23.78;89.05;101996.25;4995346;28;20824;-80
2023/09/05 09:38:38;;;;;;;19.83;12.35;;;;;;;23.78;88.52;102000.91;4989538;28;20056;-80
2023/09/05 09:41:06;;;;;;;22.00;12.20;;;;;;;23.76;88.86;101997.59;4989958;28;20030;-80
2023/09/05 09:43:33;;;;;;;20.25;10.90;;;;;;;23.86;88.42;101998.50;4986741;28;20031;-79
2023/09/05 09:46:00;;;;;;;17.95;11.73;;;;;;;23.99;88.70;101996.44;4984705;28;20034;-79
2023/09/05 09:48:29;;;;;;;18.90;11.63;;;;;;;23.91;87.74;101979.34;4975179;28;20034;-78
2023/09/05 09:50:56;;;;;;;19.85;12.48;;;;;;;23.77;89.00;101980.00;4973142;28;20047;-78
2023/09/05 09:53:30;;;;;;;18.10;12.57;;;;;;;23.94;88.20;101986.25;4968340;28;20038;-78
2023/09/05 09:55:57;;;;;;;19.95;11.65;;;;;;;23.99;87.46;101982.69;4984684;28;20085;-77
2023/09/05 09:58:24;;;;;;;16.67;11.75;;;;;;;23.96;86.81;101969.47;4984673;28;20037;-79
2023/09/05 10:00:50;;;;;;;18.63;11.85;;;;;;;23.94;87.90;101982.63;4970079;28;20050;-79
2023/09/05 10:03:16;;;;;;;16.65;11.27;;;;;;;23.89;87.79;101977.94;4969634;28;20026;-78
2023/09/05 10:05:43;;;;;;;21.77;11.98;;;;;;;23.95;87.04;101984.31;4965693;28;20026;-77
2023/09/05 10:08:12;;;;;;;17.88;12.00;;;;;;;23.85;87.53;101968.56;4950825;28;20046;-79
2023/09/05 10:10:41;;;;;;;17.90;13.43;;;;;;;23.72;87.88;101972.53;4970629;28;20397;-79
2023/09/05 10:13:11;;;;;;;21.63;13.25;;;;;;;23.58;88.38;101969.34;4969437;28;20135;-78
2023/09/05 10:15:41;;;;;;;18.13;11.25;;;;;;;23.63;88.52;101960.31;4985387;28;20031;-80
2023/09/05 10:18:12;;;;;;;16.98;11.27;;;;;;;23.75;87.62;101965.72;4953405;28;20112;-79
2023/09/05 10:20:39;;;;;;;17.85;12.27;;;;;;;23.79;87.46;101956.66;4970321;28;20030;-77
2023/09/05 10:23:06;;;;;;;20.27;12.93;;;;;;;23.72;87.47;101967.03;4974152;28;20042;-77
2023/09/05 10:25:35;;;;;;;19.05;11.38;;;;;;;23.74;87.50;101966.78;4968552;28;20042;-80
2023/09/05 10:28:00;;;;;;;17.20;11.95;;;;;;;23.73;87.84;101959.63;4966653;28;20037;-77
2023/09/05 10:30:27;;;;;;;16.88;11.48;;;;;;;23.86;87.83;101960.03;4966760;28;20038;-79
2023/09/05 10:32:53;;;;;;;20.88;12.73;;;;;;;23.99;87.25;101958.78;4970674;28;20026;-77
2023/09/05 10:35:20;;;;;;;17.38;13.20;;;;;;;24.05;86.93;101965.16;4954368;28;20516;-77
2023/09/05 10:37:51;;;;;;;18.50;12.15;;;;;;;24.14;86.77;101960.84;4968747;28;20042;-77
2023/09/05 10:40:17;;;;;;;18.05;11.48;;;;;;;24.11;87.12;101961.38;4969924;28;20401;-77
2023/09/05 10:42:54;;;;;;;17.38;12.60;;;;;;;24.21;85.99;101960.63;4987658;28;20159;-78
2023/09/05 10:45:23;;;;;;;17.48;11.55;;;;;;;24.24;85.79;101960.94;4968288;28;20031;-77
2023/09/05 10:47:49;;;;;;;21.23;12.45;;;;;;;24.26;85.82;101964.22;4966959;28;20058;-77
2023/09/05 10:50:23;;;;;;;18.02;11.20;;;;;;;24.44;84.77;101956.72;4971135;28;20133;-78
2023/09/05 10:53:11;;;;;;;17.60;10.38;;;;;;;24.51;85.16;101938.06;4990782;28;20064;-77
2023/09/05 10:55:44;;;;;;;14.80;10.60;;;;;;;24.65;85.22;101943.91;4982424;28;20126;-77
2023/09/05 10:58:45;;;;;;;19.02;11.25;;;;;;;24.82;84.23;101942.63;4999631;28;20031;-78
2023/09/05 11:01:30;;;;;;;12.80;10.23;;;;;;;24.83;83.89;101940.69;4993250;28;20030;-78
2023/09/05 11:04:03;;;;;;;17.83;11.75;;;;;;;24.67;83.71;101939.81;4990259;28;20080;-77